Komatsu Airport


Codes: RJNK/KMQ
Name: Komatsu Airport
City: Kanazawa
Country: Japan
Elevation: 36 ft.
Wikipedia:

Photos at Komatsu Airport


   Photos courtesy of SpottingLog. You can add your own sightings and photos by signing up for a free trial today.



22-8940, 14-Sep-2015
© Tomo-Papa

12-8923, 14-Sep-2015
© Tomo-Papa

02-3027, 14-Sep-2015
© Tomo-Papa

JA322J, 14-Sep-2015
© Tomo-Papa

62-8877, 14-Sep-2015
© Tomo-Papa

32-8820, 14-Sep-2015
© Tomo-Papa

22-8807, 20-Sep-2014
© Tomo-Papa

22-8810, 20-Sep-2014
© Tomo-Papa

26-5805, 20-Sep-2014
© Tomo-Papa

32-8816, 20-Sep-2014
© Tomo-Papa

JA893F, 20-Sep-2014
© Tomo-Papa

35-1071, 20-Sep-2014
© Tomo-Papa


Weather at Komatsu Airport


Time (UTC)DescriptionTempratureWindCloud coverageVisibilityPressureHumidity
25-Jun-2024 15:00Overcast Clouds22°C9 mph, 99%10000m1013hPa89%
25-Jun-2024 18:00Overcast Clouds21°C9 mph, S92%10000m1014hPa86%
25-Jun-2024 21:00Overcast Clouds20°C7 mph, S97%10000m1015hPa80%
26-Jun-2024 00:00Broken Clouds23°C4 mph, SW71%10000m1016hPa64%
26-Jun-2024 03:00Broken Clouds24°C7 mph, NW81%10000m1016hPa59%
26-Jun-2024 06:00Overcast Clouds24°C7 mph, NW90%10000m1016hPa62%
26-Jun-2024 09:00Overcast Clouds23°C2 mph, N100%10000m1016hPa76%
26-Jun-2024 12:00Overcast Clouds22°C4 mph, N99%10000m1016hPa77%
26-Jun-2024 15:00Overcast Clouds21°C2 mph, E100%10000m1016hPa75%
26-Jun-2024 18:00Overcast Clouds20°C4 mph, S100%10000m1015hPa73%
26-Jun-2024 21:00Overcast Clouds21°C2 mph, S100%10000m1016hPa71%
27-Jun-2024 00:00Overcast Clouds23°C4 mph, S100%10000m1016hPa66%
27-Jun-2024 03:00Overcast Clouds24°C4 mph, W100%10000m1015hPa62%
27-Jun-2024 06:00Overcast Clouds24°C7 mph, W100%10000m1015hPa70%
27-Jun-2024 09:00Overcast Clouds23°C0 mph, S100%10000m1014hPa84%
27-Jun-2024 12:00Overcast Clouds22°C2 mph, SW100%10000m1015hPa86%
27-Jun-2024 15:00Overcast Clouds21°C4 mph, SE100%10000m1014hPa82%
27-Jun-2024 18:00Overcast Clouds22°C2 mph, SE100%10000m1014hPa78%
27-Jun-2024 21:00Overcast Clouds22°C2 mph, SE100%10000m1014hPa78%
28-Jun-2024 00:00Light Rain23°C2 mph, NE100%10000m1014hPa75%
28-Jun-2024 03:00Light Rain24°C2 mph, W100%10000m1012hPa76%
28-Jun-2024 06:00Moderate Rain21°C4 mph, SE100%2968m1011hPa97%
28-Jun-2024 09:00Heavy Intensity Rain22°C9 mph, S100%4842m1011hPa95%
28-Jun-2024 12:00Moderate Rain21°C4 mph, SE100%7867m1010hPa94%
28-Jun-2024 15:00Light Rain22°C13 mph, S100%5673m1009hPa89%
28-Jun-2024 18:00Light Rain22°C11 mph, S100%10000m1007hPa88%
28-Jun-2024 21:00Light Rain21°C9 mph, S100%10000m1007hPa90%
29-Jun-2024 00:00Light Rain23°C20 mph, SW100%10000m1007hPa85%
29-Jun-2024 03:00Light Rain22°C25 mph, SW84%10000m1008hPa93%
29-Jun-2024 06:00Light Rain23°C20 mph, SW79%10000m1010hPa89%
29-Jun-2024 09:00Light Rain22°C7 mph, SW64%10000m1011hPa91%
29-Jun-2024 12:00Light Rain21°C4 mph, S37%10000m1012hPa92%
29-Jun-2024 15:00Few Clouds20°C4 mph, S15%10000m1012hPa92%
29-Jun-2024 18:00Scattered Clouds19°C4 mph, SE44%10000m1011hPa86%
29-Jun-2024 21:00Overcast Clouds20°C4 mph, SE100%10000m1011hPa77%
30-Jun-2024 00:00Overcast Clouds25°C2 mph, S100%10000m1010hPa59%
30-Jun-2024 03:00Overcast Clouds26°C4 mph, NW100%10000m1010hPa58%
30-Jun-2024 06:00Overcast Clouds27°C0 mph, NW100%10000m1008hPa62%
30-Jun-2024 09:00Light Rain24°C9 mph, W100%8432m1009hPa92%
30-Jun-2024 12:00Moderate Rain23°C7 mph, SW100%10000m1010hPa97%